createdAt,value
2022-12-31T00:01:55.924Z,29.73
2022-12-31T00:04:24.925Z,31.50
2022-12-31T00:06:52.478Z,31.83
2022-12-31T00:09:20.204Z,31.37
2022-12-31T00:11:47.841Z,30.10
2022-12-31T00:14:15.596Z,31.30
2022-12-31T00:16:43.701Z,31.77
2022-12-31T00:19:12.809Z,31.03
2022-12-31T00:21:42.043Z,30.20
2022-12-31T00:24:12.295Z,30.33
2022-12-31T00:26:40.153Z,30.40
2022-12-31T00:29:07.792Z,31.20
2022-12-31T00:31:37.769Z,31.87
2022-12-31T00:34:05.803Z,31.63
2022-12-31T00:36:35.747Z,30.40
2022-12-31T00:39:08.229Z,31.30
2022-12-31T00:41:36.083Z,31.80
2022-12-31T00:44:04.179Z,31.40
2022-12-31T00:46:31.904Z,30.60
2022-12-31T00:48:59.720Z,30.90
2022-12-31T00:51:28.281Z,31.00
2022-12-31T00:53:56.398Z,30.60
2022-12-31T00:56:27.674Z,31.40
2022-12-31T00:58:55.387Z,32.80
2022-12-31T01:01:25.452Z,29.90
2022-12-31T01:03:57.009Z,31.37
2022-12-31T01:06:24.894Z,31.60
2022-12-31T01:08:53.866Z,31.00
2022-12-31T01:11:22.476Z,30.60
2022-12-31T01:13:53.502Z,30.80
2022-12-31T01:16:23.448Z,30.77
2022-12-31T01:18:51.733Z,30.87
2022-12-31T01:21:20.183Z,30.47
2022-12-31T01:23:48.265Z,30.13
2022-12-31T01:26:17.904Z,31.17
2022-12-31T01:28:45.758Z,31.63
2022-12-31T01:31:16.798Z,31.83
2022-12-31T01:33:45.717Z,29.90
2022-12-31T01:36:19.023Z,30.73
2022-12-31T01:38:51.831Z,30.87
2022-12-31T01:41:22.550Z,31.60
2022-12-31T01:43:54.331Z,31.90
2022-12-31T01:46:33.470Z,30.77
2022-12-31T01:49:05.756Z,30.30
2022-12-31T01:51:36.011Z,30.70
2022-12-31T01:54:06.498Z,31.50
2022-12-31T01:56:36.052Z,30.13
2022-12-31T01:59:07.556Z,32.97
2022-12-31T02:01:38.544Z,31.10
2022-12-31T02:04:09.937Z,31.57
2022-12-31T02:06:42.449Z,31.40
2022-12-31T02:09:10.674Z,30.93
2022-12-31T02:11:38.310Z,32.47
2022-12-31T02:14:09.285Z,31.23
2022-12-31T02:16:45.732Z,32.20
2022-12-31T02:19:48.334Z,31.63
2022-12-31T02:22:28.713Z,30.13
2022-12-31T02:25:26.458Z,31.10
2022-12-31T02:28:09.809Z,29.90
2022-12-31T02:30:41.208Z,31.60
2022-12-31T02:33:15.950Z,31.57
2022-12-31T02:35:50.587Z,30.63
2022-12-31T02:38:23.035Z,30.40
2022-12-31T02:40:51.075Z,30.60
2022-12-31T02:43:18.715Z,30.83
2022-12-31T02:45:51.584Z,32.43
2022-12-31T02:48:40.722Z,31.70
2022-12-31T02:51:24.334Z,33.70
2022-12-31T02:54:07.991Z,31.70
2022-12-31T02:56:40.679Z,32.33
2022-12-31T02:59:33.635Z,31.43
2022-12-31T03:02:17.057Z,30.50
2022-12-31T03:04:48.496Z,30.33
2022-12-31T03:07:20.593Z,31.33
2022-12-31T03:09:48.231Z,31.13
2022-12-31T03:12:34.234Z,31.17
2022-12-31T03:15:02.029Z,30.17
2022-12-31T03:17:31.059Z,31.13
2022-12-31T03:20:16.075Z,30.47
2022-12-31T03:22:44.590Z,30.53
2022-12-31T03:25:32.728Z,32.20
2022-12-31T03:28:01.474Z,31.20
2022-12-31T03:30:29.537Z,30.20
2022-12-31T03:32:59.140Z,30.20
2022-12-31T03:35:28.461Z,31.67
2022-12-31T03:37:57.662Z,30.57
2022-12-31T03:40:27.295Z,31.33
2022-12-31T03:42:55.299Z,31.50
2022-12-31T03:45:23.154Z,31.10
2022-12-31T03:47:51.211Z,30.20
2022-12-31T03:50:20.704Z,30.97
2022-12-31T03:52:48.809Z,29.67
2022-12-31T03:55:16.406Z,29.97
2022-12-31T03:57:44.263Z,30.20
2022-12-31T04:00:15.647Z,29.80
2022-12-31T04:02:43.566Z,29.00
2022-12-31T04:05:12.135Z,29.30
2022-12-31T04:07:41.872Z,29.33
2022-12-31T04:10:12.102Z,30.10
2022-12-31T04:12:40.138Z,29.73
2022-12-31T04:15:09.634Z,29.70
2022-12-31T04:17:37.263Z,30.20
2022-12-31T04:20:05.935Z,30.10
2022-12-31T04:22:33.515Z,30.40
2022-12-31T04:25:02.467Z,29.23
2022-12-31T04:27:30.043Z,29.77
2022-12-31T04:29:57.636Z,29.10
2022-12-31T04:32:25.195Z,30.20
2022-12-31T04:34:52.796Z,29.07
2022-12-31T04:37:20.483Z,28.60
2022-12-31T04:39:48.076Z,29.13
2022-12-31T04:42:17.016Z,28.80
2022-12-31T04:44:44.571Z,29.00
2022-12-31T04:47:12.151Z,28.63
2022-12-31T04:49:39.714Z,30.63
2022-12-31T04:52:07.450Z,30.00
2022-12-31T04:54:35.118Z,29.90
2022-12-31T04:57:02.703Z,29.67
2022-12-31T04:59:31.656Z,29.97
2022-12-31T05:01:59.516Z,29.83
2022-12-31T05:04:27.311Z,29.50
2022-12-31T05:06:54.887Z,29.67
2022-12-31T05:09:24.117Z,30.60
2022-12-31T05:11:51.893Z,29.03
2022-12-31T05:14:20.026Z,30.67
2022-12-31T05:16:49.039Z,29.50
2022-12-31T05:19:17.003Z,29.20
2022-12-31T05:22:05.066Z,29.20
2022-12-31T05:24:32.774Z,29.70
2022-12-31T05:27:00.415Z,30.83
2022-12-31T05:29:28.247Z,30.00
2022-12-31T05:31:57.235Z,30.57
2022-12-31T05:34:24.922Z,30.47
2022-12-31T05:36:52.531Z,31.63
2022-12-31T05:39:20.195Z,31.20
2022-12-31T05:41:47.832Z,31.00
2022-12-31T05:44:15.624Z,32.20
2022-12-31T05:46:43.219Z,30.77
2022-12-31T05:49:12.120Z,31.73
2022-12-31T05:51:39.908Z,32.93
2022-12-31T05:54:07.581Z,32.43
2022-12-31T05:56:35.210Z,33.30
2022-12-31T05:59:02.853Z,34.53
2022-12-31T06:01:30.651Z,34.70
2022-12-31T06:03:58.365Z,35.90
2022-12-31T06:06:27.414Z,35.63
2022-12-31T06:08:55.055Z,38.80
2022-12-31T06:11:22.653Z,35.40
2022-12-31T06:13:50.271Z,34.80
2022-12-31T06:16:17.965Z,35.37
2022-12-31T06:18:50.181Z,35.80
2022-12-31T06:21:18.411Z,36.83
2022-12-31T06:23:47.560Z,36.17
2022-12-31T06:26:16.233Z,37.60
2022-12-31T06:28:43.968Z,38.50
2022-12-31T06:31:13.933Z,36.63
2022-12-31T06:33:42.608Z,37.10
2022-12-31T06:36:14.165Z,36.80
2022-12-31T06:38:43.408Z,36.90
2022-12-31T06:41:14.335Z,35.53
2022-12-31T06:43:42.825Z,35.70
2022-12-31T06:46:13.282Z,34.97
2022-12-31T06:48:43.046Z,35.37
2022-12-31T06:51:17.008Z,37.00
2022-12-31T06:53:46.158Z,38.63
2022-12-31T06:56:18.881Z,36.50
2022-12-31T06:58:47.476Z,35.60
2022-12-31T07:01:31.616Z,35.80
2022-12-31T07:04:07.615Z,33.70
2022-12-31T07:06:43.997Z,33.83
2022-12-31T07:09:19.375Z,34.03
2022-12-31T07:12:01.646Z,32.83
2022-12-31T07:14:38.273Z,33.80
2022-12-31T07:17:17.489Z,32.97
2022-12-31T07:19:57.741Z,34.00
2022-12-31T07:22:26.084Z,32.87
2022-12-31T07:24:54.335Z,33.17
2022-12-31T07:27:37.183Z,32.80
2022-12-31T07:30:11.021Z,32.10
2022-12-31T07:33:09.323Z,32.27
2022-12-31T07:35:48.463Z,34.10
2022-12-31T07:38:25.564Z,33.03
2022-12-31T07:41:09.375Z,32.43
2022-12-31T07:43:49.503Z,33.10
2022-12-31T07:46:23.266Z,33.27
2022-12-31T07:48:51.619Z,32.50
2022-12-31T07:51:19.819Z,33.50
2022-12-31T07:53:47.510Z,30.40
2022-12-31T07:56:15.292Z,31.10
2022-12-31T07:58:59.367Z,32.47
2022-12-31T08:01:35.511Z,33.63
2022-12-31T08:04:10.390Z,34.40
2022-12-31T08:06:46.971Z,34.10
2022-12-31T08:09:30.499Z,35.40
2022-12-31T08:11:59.762Z,34.20
2022-12-31T08:14:30.049Z,35.40
2022-12-31T08:16:59.064Z,34.20
2022-12-31T08:19:29.739Z,34.50
2022-12-31T08:22:16.659Z,33.40
2022-12-31T08:24:56.614Z,34.73
2022-12-31T08:27:33.427Z,35.00
2022-12-31T08:30:08.756Z,35.50
2022-12-31T08:32:42.154Z,36.00
2022-12-31T08:35:26.844Z,36.70
2022-12-31T08:38:02.403Z,36.10
2022-12-31T08:40:39.300Z,37.00
2022-12-31T08:43:19.832Z,35.90
2022-12-31T08:45:51.248Z,34.70
2022-12-31T08:48:26.799Z,35.83
2022-12-31T08:50:55.473Z,33.97
2022-12-31T08:53:23.668Z,34.60
2022-12-31T08:55:56.806Z,34.10
2022-12-31T08:58:40.667Z,34.17
2022-12-31T09:01:10.406Z,33.37
2022-12-31T09:04:04.600Z,32.43
2022-12-31T09:06:36.983Z,32.30
2022-12-31T09:09:11.314Z,31.57
2022-12-31T09:11:52.283Z,31.10
2022-12-31T09:14:37.584Z,30.57
2022-12-31T09:17:17.643Z,31.23
2022-12-31T09:19:45.513Z,30.43
2022-12-31T09:22:13.400Z,31.20
2022-12-31T09:24:41.522Z,31.30
2022-12-31T09:27:17.665Z,31.30
2022-12-31T09:29:58.237Z,31.77
2022-12-31T09:32:37.094Z,30.53
2022-12-31T09:35:12.684Z,31.57
2022-12-31T09:37:46.928Z,31.90
2022-12-31T09:40:54.068Z,33.00
2022-12-31T09:44:01.517Z,30.77
2022-12-31T09:47:08.865Z,29.87
2022-12-31T09:50:04.723Z,29.53
2022-12-31T09:52:44.555Z,27.50
2022-12-31T09:55:29.819Z,27.43
2022-12-31T09:58:08.798Z,26.63
2022-12-31T10:00:42.546Z,26.80
2022-12-31T10:03:28.922Z,26.30
2022-12-31T10:06:17.270Z,26.03
2022-12-31T10:09:01.470Z,26.20
2022-12-31T10:11:51.961Z,26.10
2022-12-31T10:14:31.674Z,25.87
2022-12-31T10:17:19.629Z,26.40
2022-12-31T10:20:03.081Z,26.60
2022-12-31T10:22:56.000Z,27.40
2022-12-31T10:25:38.611Z,26.43
2022-12-31T10:28:19.239Z,26.10
2022-12-31T10:30:58.729Z,27.57
2022-12-31T10:33:42.405Z,26.67
2022-12-31T10:36:19.294Z,27.90
2022-12-31T10:39:01.492Z,27.43
2022-12-31T10:42:05.974Z,27.40
2022-12-31T10:45:16.356Z,27.00
2022-12-31T10:48:07.285Z,26.90
2022-12-31T10:51:09.766Z,27.53
2022-12-31T10:54:09.301Z,26.97
2022-12-31T10:57:07.083Z,27.80
2022-12-31T10:59:55.119Z,27.60
2022-12-31T11:03:01.935Z,27.00
2022-12-31T11:06:04.760Z,26.70
2022-12-31T11:08:50.851Z,26.10
2022-12-31T11:11:29.419Z,27.60
2022-12-31T11:14:30.356Z,27.30
2022-12-31T11:17:09.237Z,26.33
2022-12-31T11:19:47.910Z,26.40
2022-12-31T11:22:44.967Z,26.73
2022-12-31T11:25:34.310Z,27.00
2022-12-31T11:28:20.177Z,25.67
2022-12-31T11:31:02.411Z,26.40
2022-12-31T11:33:46.788Z,26.70
2022-12-31T11:36:25.252Z,26.33
2022-12-31T11:38:56.952Z,26.20
2022-12-31T11:41:34.423Z,26.93
2022-12-31T11:44:14.166Z,26.60
2022-12-31T11:46:54.520Z,27.40
2022-12-31T11:49:44.015Z,26.80
2022-12-31T11:52:29.309Z,25.77
2022-12-31T11:55:13.579Z,25.20
2022-12-31T11:57:47.512Z,25.67
2022-12-31T12:00:20.487Z,25.80
2022-12-31T12:02:50.251Z,24.90
2022-12-31T12:05:21.208Z,25.30
2022-12-31T12:07:49.624Z,27.03
2022-12-31T12:10:27.859Z,26.10
2022-12-31T12:13:00.332Z,26.43
2022-12-31T12:15:32.733Z,25.10
2022-12-31T12:18:07.554Z,25.80
2022-12-31T12:20:38.354Z,26.80
2022-12-31T12:23:15.922Z,26.50
2022-12-31T12:25:45.725Z,26.27
2022-12-31T12:28:21.603Z,26.23
2022-12-31T12:30:57.393Z,26.17
2022-12-31T12:33:25.533Z,26.17
2022-12-31T12:35:53.345Z,26.53
2022-12-31T12:38:23.766Z,25.43
2022-12-31T12:40:57.448Z,25.77
2022-12-31T12:43:27.573Z,25.07
2022-12-31T12:46:00.675Z,25.00
2022-12-31T12:48:35.830Z,25.20
2022-12-31T12:51:19.824Z,23.63
2022-12-31T12:53:59.120Z,23.73
2022-12-31T12:56:38.119Z,24.10
2022-12-31T12:59:29.832Z,23.83
2022-12-31T13:02:09.441Z,23.40
2022-12-31T13:04:53.507Z,23.80
2022-12-31T13:07:37.523Z,24.90
2022-12-31T13:10:19.688Z,25.20
2022-12-31T13:15:53.113Z,25.40
2022-12-31T13:18:33.300Z,25.70
2022-12-31T13:21:05.819Z,27.47
2022-12-31T13:23:40.129Z,26.87
2022-12-31T13:26:15.627Z,26.13
2022-12-31T13:28:47.288Z,27.90
2022-12-31T13:31:19.342Z,28.00
2022-12-31T13:33:53.398Z,26.70
2022-12-31T13:36:24.516Z,27.20
2022-12-31T13:38:53.759Z,27.07
2022-12-31T13:41:26.104Z,27.43
2022-12-31T13:43:59.433Z,26.77
2022-12-31T13:46:38.116Z,27.27
2022-12-31T13:49:16.814Z,27.90
2022-12-31T13:51:46.462Z,28.30
2022-12-31T13:54:25.447Z,27.53
2022-12-31T13:56:54.492Z,27.87
2022-12-31T13:59:27.184Z,30.00
2022-12-31T14:02:01.645Z,28.47
2022-12-31T14:04:34.932Z,28.63
2022-12-31T14:07:08.552Z,27.43
2022-12-31T14:09:37.713Z,27.60
2022-12-31T14:12:29.601Z,28.00
2022-12-31T14:15:08.625Z,28.30
2022-12-31T14:17:41.303Z,27.23
2022-12-31T14:20:22.649Z,28.57
2022-12-31T14:22:59.560Z,28.33
2022-12-31T14:25:32.284Z,28.43
2022-12-31T14:28:02.993Z,28.30
2022-12-31T14:30:33.347Z,28.50
2022-12-31T14:33:26.326Z,29.17
2022-12-31T14:36:10.546Z,28.57
2022-12-31T14:38:52.411Z,29.30
2022-12-31T14:41:35.020Z,29.23
2022-12-31T14:44:14.306Z,29.23
2022-12-31T14:46:54.521Z,29.63
2022-12-31T14:49:37.584Z,30.13
2022-12-31T14:52:23.309Z,28.70
2022-12-31T14:55:02.930Z,28.27
2022-12-31T14:58:01.449Z,29.57
2022-12-31T15:00:32.198Z,29.10
2022-12-31T15:03:02.580Z,28.50
2022-12-31T15:05:31.861Z,28.77
2022-12-31T15:08:22.931Z,29.23
2022-12-31T15:11:13.274Z,30.67
2022-12-31T15:13:55.954Z,29.70
2022-12-31T15:16:38.659Z,28.37
2022-12-31T15:19:42.751Z,28.27
2022-12-31T15:22:23.146Z,29.50
2022-12-31T15:24:52.278Z,29.50
2022-12-31T15:27:34.685Z,28.57
2022-12-31T15:30:03.616Z,28.70
2022-12-31T15:32:36.675Z,29.20
2022-12-31T15:35:24.134Z,29.60
2022-12-31T15:37:59.363Z,29.70
2022-12-31T15:40:29.778Z,28.90
2022-12-31T15:43:03.430Z,29.13
2022-12-31T15:45:37.949Z,30.27
2022-12-31T15:48:14.619Z,30.57
2022-12-31T15:50:44.149Z,30.83
2022-12-31T15:53:24.152Z,31.90
2022-12-31T15:55:55.639Z,31.87
2022-12-31T15:58:27.350Z,30.57
2022-12-31T16:01:02.966Z,30.70
2022-12-31T16:03:32.768Z,31.87
2022-12-31T16:06:02.744Z,30.87
2022-12-31T16:08:34.746Z,31.27
2022-12-31T16:11:05.364Z,31.10
2022-12-31T16:13:36.131Z,30.73
2022-12-31T16:16:05.477Z,30.80
2022-12-31T16:18:40.296Z,31.83
2022-12-31T16:21:26.307Z,31.30
2022-12-31T16:23:54.886Z,33.20
2022-12-31T16:26:27.003Z,32.50
2022-12-31T16:28:59.901Z,32.50
2022-12-31T16:31:30.592Z,32.80
2022-12-31T16:34:06.318Z,31.80
2022-12-31T16:36:34.132Z,30.77
2022-12-31T16:39:24.341Z,30.60
2022-12-31T16:41:54.097Z,30.30
2022-12-31T16:44:26.688Z,30.83
2022-12-31T16:46:58.117Z,31.43
2022-12-31T16:49:27.125Z,30.83
2022-12-31T16:51:59.428Z,29.70
2022-12-31T16:54:31.055Z,31.50
2022-12-31T16:57:01.364Z,29.17
2022-12-31T16:59:35.344Z,29.30
2022-12-31T17:02:12.763Z,31.20
2022-12-31T17:04:46.920Z,31.50
2022-12-31T17:07:37.782Z,32.20
2022-12-31T17:10:17.083Z,31.20
2022-12-31T17:13:25.506Z,30.60
2022-12-31T17:15:41.293Z,31.03
2022-12-31T17:18:16.015Z,29.90
2022-12-31T17:20:44.010Z,32.30
2022-12-31T17:23:21.736Z,31.50
2022-12-31T17:25:50.971Z,29.60
2022-12-31T17:28:26.074Z,30.97
2022-12-31T17:30:54.109Z,29.20
2022-12-31T17:33:32.226Z,31.07
2022-12-31T17:36:23.193Z,30.40
2022-12-31T17:38:51.390Z,30.93
2022-12-31T17:41:26.765Z,31.10
2022-12-31T17:43:57.647Z,29.63
2022-12-31T17:46:26.561Z,30.03
2022-12-31T17:49:02.967Z,31.07
2022-12-31T17:51:30.542Z,29.40
2022-12-31T17:54:00.751Z,30.27
2022-12-31T17:56:28.354Z,29.93
2022-12-31T17:58:57.262Z,31.50
2022-12-31T18:01:25.048Z,31.37
2022-12-31T18:03:52.836Z,32.47
2022-12-31T18:06:20.399Z,31.53
2022-12-31T18:08:48.501Z,29.93
2022-12-31T18:11:18.751Z,30.07
2022-12-31T18:13:46.830Z,29.90
2022-12-31T18:16:16.553Z,27.80
2022-12-31T18:18:45.302Z,26.30
2022-12-31T18:21:20.153Z,24.67
2022-12-31T18:23:49.293Z,26.50
2022-12-31T18:26:19.321Z,34.27
2022-12-31T18:28:47.979Z,32.80
2022-12-31T18:31:19.391Z,32.13
2022-12-31T18:33:48.214Z,31.40
2022-12-31T18:36:18.587Z,32.00
2022-12-31T18:38:46.860Z,30.50
2022-12-31T18:41:18.502Z,29.60
2022-12-31T18:43:46.275Z,31.27
2022-12-31T18:46:15.679Z,29.77
2022-12-31T18:48:45.106Z,30.90
2022-12-31T18:51:15.080Z,29.03
2022-12-31T18:53:42.963Z,27.50
2022-12-31T18:56:13.698Z,28.50
2022-12-31T18:58:42.379Z,28.00
2022-12-31T19:01:25.669Z,27.07
2022-12-31T19:03:55.608Z,27.67
2022-12-31T19:06:23.396Z,30.40
2022-12-31T19:08:51.422Z,29.00
2022-12-31T19:11:19.829Z,28.50
2022-12-31T19:13:47.684Z,28.87
2022-12-31T19:16:17.836Z,28.70
2022-12-31T19:18:47.330Z,29.67
2022-12-31T19:21:18.394Z,29.13
2022-12-31T19:23:46.408Z,28.40
2022-12-31T19:26:17.189Z,27.80
2022-12-31T19:28:45.958Z,27.37
2022-12-31T19:31:14.289Z,26.57
2022-12-31T19:33:42.254Z,27.20
2022-12-31T19:36:15.729Z,27.10
2022-12-31T19:38:45.290Z,31.13
2022-12-31T19:41:17.891Z,29.47
2022-12-31T19:43:46.157Z,29.60
2022-12-31T19:46:15.397Z,29.00
2022-12-31T19:48:43.682Z,29.27
2022-12-31T19:51:13.366Z,29.10
2022-12-31T19:53:41.353Z,28.50
2022-12-31T19:56:14.107Z,28.90
2022-12-31T19:58:42.023Z,28.67
2022-12-31T20:01:17.239Z,30.23
2022-12-31T20:03:44.983Z,28.97
2022-12-31T20:06:12.614Z,29.13
2022-12-31T20:08:43.252Z,28.90
2022-12-31T20:11:14.461Z,28.80
2022-12-31T20:13:43.260Z,31.73
2022-12-31T20:16:12.851Z,30.40
2022-12-31T20:18:42.421Z,30.90
2022-12-31T20:21:13.224Z,30.97
2022-12-31T20:23:40.875Z,29.73
2022-12-31T20:26:08.604Z,28.10
2022-12-31T20:28:38.320Z,31.03
2022-12-31T20:31:07.674Z,28.60
2022-12-31T20:33:35.486Z,29.03
2022-12-31T20:36:03.685Z,27.97
2022-12-31T20:38:31.290Z,29.57
2022-12-31T20:41:04.438Z,28.37
2022-12-31T20:43:33.268Z,30.30
2022-12-31T20:46:12.442Z,30.40
2022-12-31T20:48:43.262Z,29.73
2022-12-31T20:51:10.999Z,31.07
2022-12-31T20:53:38.738Z,31.73
2022-12-31T20:56:06.939Z,31.70
2022-12-31T20:58:34.690Z,31.00
2022-12-31T21:01:07.154Z,29.80
2022-12-31T21:06:24.532Z,28.33
2022-12-31T21:08:52.410Z,30.57
2022-12-31T21:11:37.473Z,29.20
2022-12-31T21:14:05.236Z,33.43
2022-12-31T21:16:36.723Z,32.90
2022-12-31T21:19:05.435Z,34.17
2022-12-31T21:21:34.656Z,34.13
2022-12-31T21:24:02.948Z,34.60
2022-12-31T21:26:31.417Z,36.10
2022-12-31T21:28:59.442Z,37.57
2022-12-31T21:31:27.146Z,38.37
2022-12-31T21:33:56.366Z,35.20
2022-12-31T21:36:24.091Z,37.10
2022-12-31T21:38:51.699Z,36.10
2022-12-31T21:41:37.015Z,35.77
2022-12-31T21:44:05.467Z,37.00
2022-12-31T21:46:33.444Z,39.10
2022-12-31T21:49:02.487Z,39.87
2022-12-31T21:51:30.505Z,39.40
2022-12-31T21:53:58.788Z,38.07
2022-12-31T21:56:25.460Z,38.00
2022-12-31T21:59:09.692Z,38.67
2022-12-31T22:02:00.277Z,38.60
2022-12-31T22:05:01.398Z,38.10
2022-12-31T22:07:18.169Z,37.30
2022-12-31T22:09:45.991Z,37.53
2022-12-31T22:12:13.768Z,37.17
2022-12-31T22:15:14.201Z,36.23
2022-12-31T22:17:31.228Z,36.43
2022-12-31T22:20:25.845Z,36.30
2022-12-31T22:22:47.801Z,38.20
2022-12-31T22:25:15.595Z,37.80
2022-12-31T22:27:53.039Z,37.73
2022-12-31T22:30:31.065Z,38.20
2022-12-31T22:32:58.912Z,39.80
2022-12-31T22:35:27.809Z,38.37
2022-12-31T22:37:57.928Z,39.00
2022-12-31T22:40:27.807Z,39.50
2022-12-31T22:42:55.955Z,39.50
2022-12-31T22:45:23.523Z,37.73
2022-12-31T22:47:51.273Z,34.60
2022-12-31T22:50:20.167Z,33.83
2022-12-31T22:52:49.089Z,33.80
2022-12-31T22:55:16.699Z,36.30
2022-12-31T22:57:44.286Z,36.63
2022-12-31T23:00:14.729Z,36.63
2022-12-31T23:02:43.314Z,35.27
2022-12-31T23:05:15.762Z,35.03
2022-12-31T23:07:43.989Z,36.70
2022-12-31T23:10:30.508Z,35.47
2022-12-31T23:13:19.739Z,34.43
2022-12-31T23:16:05.215Z,34.73
2022-12-31T23:18:50.565Z,35.93
2022-12-31T23:21:36.018Z,34.53
2022-12-31T23:24:04.442Z,37.43
2022-12-31T23:26:33.493Z,36.10
2022-12-31T23:29:01.959Z,41.67
2022-12-31T23:31:32.056Z,45.27
2022-12-31T23:33:59.687Z,42.53
2022-12-31T23:36:27.474Z,38.73
2022-12-31T23:38:55.069Z,42.80
2022-12-31T23:41:23.235Z,40.53
2022-12-31T23:43:52.317Z,38.97
2022-12-31T23:46:20.262Z,38.47
2022-12-31T23:48:47.876Z,39.00
2022-12-31T23:51:15.527Z,38.10
2022-12-31T23:53:43.139Z,38.30
2022-12-31T23:56:22.800Z,36.67
2022-12-31T23:58:56.155Z,37.10
